sensor_id;sensor_type;location;lat;lon;timestamp;P1;durP1;ratioP1;P2;durP2;ratioP2
48028;SDS011;33808;37.368;127.108;2023-03-19T00:01:21;99.40;;;51.17;;
48028;SDS011;33808;37.368;127.108;2023-03-19T00:03:51;107.55;;;51.67;;
48028;SDS011;33808;37.368;127.108;2023-03-19T00:06:21;104.88;;;51.45;;
48028;SDS011;33808;37.368;127.108;2023-03-19T00:08:52;110.20;;;54.08;;
48028;SDS011;33808;37.368;127.108;2023-03-19T00:11:22;103.82;;;51.97;;
48028;SDS011;33808;37.368;127.108;2023-03-19T00:13:52;117.22;;;53.53;;
48028;SDS011;33808;37.368;127.108;2023-03-19T00:16:22;107.75;;;51.80;;
48028;SDS011;33808;37.368;127.108;2023-03-19T00:18:51;111.43;;;51.90;;
48028;SDS011;33808;37.368;127.108;2023-03-19T00:21:20;107.35;;;53.75;;
48028;SDS011;33808;37.368;127.108;2023-03-19T00:23:52;117.45;;;53.97;;
48028;SDS011;33808;37.368;127.108;2023-03-19T00:26:21;103.60;;;51.13;;
48028;SDS011;33808;37.368;127.108;2023-03-19T00:28:51;107.28;;;55.00;;
48028;SDS011;33808;37.368;127.108;2023-03-19T00:31:21;104.10;;;55.15;;
48028;SDS011;33808;37.368;127.108;2023-03-19T00:33:51;104.35;;;52.97;;
48028;SDS011;33808;37.368;127.108;2023-03-19T00:36:20;113.72;;;54.08;;
48028;SDS011;33808;37.368;127.108;2023-03-19T00:38:50;112.80;;;55.45;;
48028;SDS011;33808;37.368;127.108;2023-03-19T00:41:20;114.05;;;55.28;;
48028;SDS011;33808;37.368;127.108;2023-03-19T00:43:53;114.43;;;53.92;;
48028;SDS011;33808;37.368;127.108;2023-03-19T00:46:24;112.38;;;54.05;;
48028;SDS011;33808;37.368;127.108;2023-03-19T00:48:54;107.53;;;54.83;;
48028;SDS011;33808;37.368;127.108;2023-03-19T00:51:25;118.03;;;54.80;;
48028;SDS011;33808;37.368;127.108;2023-03-19T00:53:55;100.47;;;51.92;;
48028;SDS011;33808;37.368;127.108;2023-03-19T00:56:24;116.60;;;55.90;;
48028;SDS011;33808;37.368;127.108;2023-03-19T00:58:55;109.40;;;55.15;;
48028;SDS011;33808;37.368;127.108;2023-03-19T01:01:24;105.03;;;53.45;;
48028;SDS011;33808;37.368;127.108;2023-03-19T01:03:54;108.25;;;53.40;;
48028;SDS011;33808;37.368;127.108;2023-03-19T01:06:24;113.32;;;53.95;;
48028;SDS011;33808;37.368;127.108;2023-03-19T01:08:53;109.57;;;54.85;;
48028;SDS011;33808;37.368;127.108;2023-03-19T01:11:23;100.72;;;53.75;;
48028;SDS011;33808;37.368;127.108;2023-03-19T01:13:53;102.57;;;53.80;;
48028;SDS011;33808;37.368;127.108;2023-03-19T01:16:23;112.78;;;53.50;;
48028;SDS011;33808;37.368;127.108;2023-03-19T01:18:53;112.97;;;55.40;;
48028;SDS011;33808;37.368;127.108;2023-03-19T01:21:23;105.72;;;51.45;;
48028;SDS011;33808;37.368;127.108;2023-03-19T01:23:53;98.32;;;53.58;;
48028;SDS011;33808;37.368;127.108;2023-03-19T01:26:23;100.45;;;52.10;;
48028;SDS011;33808;37.368;127.108;2023-03-19T01:28:53;105.38;;;53.25;;
48028;SDS011;33808;37.368;127.108;2023-03-19T01:31:23;110.65;;;52.53;;
48028;SDS011;33808;37.368;127.108;2023-03-19T01:33:52;107.60;;;54.90;;
48028;SDS011;33808;37.368;127.108;2023-03-19T01:36:22;109.00;;;53.33;;
48028;SDS011;33808;37.368;127.108;2023-03-19T01:38:52;111.05;;;54.35;;
48028;SDS011;33808;37.368;127.108;2023-03-19T01:41:23;99.57;;;54.40;;
48028;SDS011;33808;37.368;127.108;2023-03-19T01:43:52;102.43;;;50.42;;
48028;SDS011;33808;37.368;127.108;2023-03-19T01:49:04;98.85;;;50.42;;
48028;SDS011;33808;37.368;127.108;2023-03-19T01:51:37;95.78;;;51.42;;
48028;SDS011;33808;37.368;127.108;2023-03-19T01:54:11;102.30;;;52.42;;
48028;SDS011;33808;37.368;127.108;2023-03-19T01:56:44;99.15;;;52.55;;
48028;SDS011;33808;37.368;127.108;2023-03-19T01:59:59;99.03;;;52.80;;
48028;SDS011;33808;37.368;127.108;2023-03-19T02:04:54;95.97;;;50.65;;
48028;SDS011;33808;37.368;127.108;2023-03-19T02:07:35;95.78;;;47.83;;
48028;SDS011;33808;37.368;127.108;2023-03-19T02:10:08;104.72;;;51.15;;
48028;SDS011;33808;37.368;127.108;2023-03-19T02:12:41;93.95;;;51.88;;
48028;SDS011;33808;37.368;127.108;2023-03-19T02:15:10;99.63;;;49.08;;
48028;SDS011;33808;37.368;127.108;2023-03-19T02:17:40;94.85;;;52.22;;
48028;SDS011;33808;37.368;127.108;2023-03-19T02:20:21;100.65;;;51.22;;
48028;SDS011;33808;37.368;127.108;2023-03-19T02:25:58;93.10;;;49.10;;
48028;SDS011;33808;37.368;127.108;2023-03-19T02:28:40;100.70;;;51.70;;
48028;SDS011;33808;37.368;127.108;2023-03-19T02:31:12;98.85;;;51.42;;
48028;SDS011;33808;37.368;127.108;2023-03-19T02:33:43;98.68;;;49.55;;
48028;SDS011;33808;37.368;127.108;2023-03-19T02:36:24;97.53;;;50.47;;
48028;SDS011;33808;37.368;127.108;2023-03-19T02:38:59;94.55;;;49.95;;
48028;SDS011;33808;37.368;127.108;2023-03-19T02:41:32;96.35;;;48.90;;
48028;SDS011;33808;37.368;127.108;2023-03-19T02:44:05;95.13;;;47.80;;
48028;SDS011;33808;37.368;127.108;2023-03-19T02:49:08;96.38;;;49.03;;
48028;SDS011;33808;37.368;127.108;2023-03-19T02:51:37;93.75;;;50.17;;
48028;SDS011;33808;37.368;127.108;2023-03-19T02:54:09;92.63;;;49.30;;
48028;SDS011;33808;37.368;127.108;2023-03-19T02:56:38;90.78;;;48.03;;
48028;SDS011;33808;37.368;127.108;2023-03-19T02:59:08;88.78;;;47.58;;
48028;SDS011;33808;37.368;127.108;2023-03-19T03:01:38;88.57;;;46.67;;
48028;SDS011;33808;37.368;127.108;2023-03-19T03:04:08;104.22;;;51.20;;
48028;SDS011;33808;37.368;127.108;2023-03-19T03:06:38;89.47;;;47.88;;
48028;SDS011;33808;37.368;127.108;2023-03-19T03:09:08;100.28;;;47.83;;
48028;SDS011;33808;37.368;127.108;2023-03-19T03:11:39;95.22;;;47.20;;
48028;SDS011;33808;37.368;127.108;2023-03-19T03:14:09;94.53;;;48.53;;
48028;SDS011;33808;37.368;127.108;2023-03-19T03:16:39;99.43;;;49.35;;
48028;SDS011;33808;37.368;127.108;2023-03-19T03:19:09;91.88;;;48.15;;
48028;SDS011;33808;37.368;127.108;2023-03-19T03:21:39;97.13;;;50.25;;
48028;SDS011;33808;37.368;127.108;2023-03-19T03:24:09;96.60;;;47.65;;
48028;SDS011;33808;37.368;127.108;2023-03-19T03:26:39;93.50;;;46.03;;
48028;SDS011;33808;37.368;127.108;2023-03-19T03:29:08;92.28;;;46.58;;
48028;SDS011;33808;37.368;127.108;2023-03-19T03:31:37;89.45;;;47.08;;
48028;SDS011;33808;37.368;127.108;2023-03-19T03:34:07;90.82;;;47.65;;
48028;SDS011;33808;37.368;127.108;2023-03-19T03:36:37;82.78;;;46.80;;
48028;SDS011;33808;37.368;127.108;2023-03-19T03:39:06;88.13;;;46.70;;
48028;SDS011;33808;37.368;127.108;2023-03-19T03:41:36;87.90;;;46.10;;
48028;SDS011;33808;37.368;127.108;2023-03-19T03:44:06;86.22;;;46.70;;
48028;SDS011;33808;37.368;127.108;2023-03-19T03:46:35;85.50;;;47.05;;
48028;SDS011;33808;37.368;127.108;2023-03-19T03:49:04;87.57;;;45.65;;
48028;SDS011;33808;37.368;127.108;2023-03-19T03:51:34;84.47;;;46.00;;
48028;SDS011;33808;37.368;127.108;2023-03-19T03:54:04;96.15;;;46.38;;
48028;SDS011;33808;37.368;127.108;2023-03-19T03:56:34;89.03;;;47.58;;
48028;SDS011;33808;37.368;127.108;2023-03-19T03:59:04;81.38;;;45.47;;
48028;SDS011;33808;37.368;127.108;2023-03-19T04:01:34;84.35;;;48.20;;
48028;SDS011;33808;37.368;127.108;2023-03-19T04:04:04;86.55;;;46.33;;
48028;SDS011;33808;37.368;127.108;2023-03-19T04:06:33;89.85;;;47.22;;
48028;SDS011;33808;37.368;127.108;2023-03-19T04:09:03;93.53;;;50.85;;
48028;SDS011;33808;37.368;127.108;2023-03-19T04:11:35;94.43;;;46.95;;
48028;SDS011;33808;37.368;127.108;2023-03-19T04:14:05;95.93;;;46.90;;
48028;SDS011;33808;37.368;127.108;2023-03-19T04:16:35;93.07;;;47.25;;
48028;SDS011;33808;37.368;127.108;2023-03-19T04:19:05;68.60;;;35.80;;
48028;SDS011;33808;37.368;127.108;2023-03-19T04:21:35;75.78;;;39.13;;
48028;SDS011;33808;37.368;127.108;2023-03-19T04:24:05;84.65;;;39.70;;
48028;SDS011;33808;37.368;127.108;2023-03-19T04:26:35;69.32;;;37.88;;
48028;SDS011;33808;37.368;127.108;2023-03-19T04:29:05;76.13;;;36.22;;
48028;SDS011;33808;37.368;127.108;2023-03-19T04:31:36;68.22;;;37.22;;
48028;SDS011;33808;37.368;127.108;2023-03-19T04:34:05;76.82;;;35.45;;
48028;SDS011;33808;37.368;127.108;2023-03-19T04:36:35;75.53;;;37.10;;
48028;SDS011;33808;37.368;127.108;2023-03-19T04:39:04;73.00;;;37.88;;
48028;SDS011;33808;37.368;127.108;2023-03-19T04:41:34;81.60;;;40.00;;
48028;SDS011;33808;37.368;127.108;2023-03-19T04:44:04;74.85;;;39.10;;
48028;SDS011;33808;37.368;127.108;2023-03-19T04:46:34;82.20;;;38.58;;
48028;SDS011;33808;37.368;127.108;2023-03-19T04:49:04;66.45;;;38.00;;
48028;SDS011;33808;37.368;127.108;2023-03-19T04:51:34;79.85;;;40.17;;
48028;SDS011;33808;37.368;127.108;2023-03-19T04:54:04;79.20;;;40.30;;
48028;SDS011;33808;37.368;127.108;2023-03-19T04:56:33;76.03;;;40.60;;
48028;SDS011;33808;37.368;127.108;2023-03-19T04:59:03;86.68;;;41.97;;
48028;SDS011;33808;37.368;127.108;2023-03-19T05:01:32;72.63;;;37.03;;
48028;SDS011;33808;37.368;127.108;2023-03-19T05:04:02;82.25;;;40.20;;
48028;SDS011;33808;37.368;127.108;2023-03-19T05:06:32;84.25;;;38.15;;
48028;SDS011;33808;37.368;127.108;2023-03-19T05:09:02;82.07;;;39.80;;
48028;SDS011;33808;37.368;127.108;2023-03-19T05:11:31;76.50;;;37.72;;
48028;SDS011;33808;37.368;127.108;2023-03-19T05:14:01;77.85;;;37.88;;
48028;SDS011;33808;37.368;127.108;2023-03-19T05:16:31;64.53;;;35.80;;
48028;SDS011;33808;37.368;127.108;2023-03-19T05:19:02;58.83;;;28.45;;
48028;SDS011;33808;37.368;127.108;2023-03-19T05:21:32;49.83;;;27.73;;
48028;SDS011;33808;37.368;127.108;2023-03-19T05:24:01;47.05;;;25.45;;
48028;SDS011;33808;37.368;127.108;2023-03-19T05:26:31;48.13;;;25.38;;
48028;SDS011;33808;37.368;127.108;2023-03-19T05:29:01;53.30;;;25.77;;
48028;SDS011;33808;37.368;127.108;2023-03-19T05:31:32;58.17;;;26.92;;
48028;SDS011;33808;37.368;127.108;2023-03-19T05:34:01;46.92;;;24.58;;
48028;SDS011;33808;37.368;127.108;2023-03-19T05:36:31;46.88;;;23.52;;
48028;SDS011;33808;37.368;127.108;2023-03-19T05:39:01;48.22;;;24.30;;
48028;SDS011;33808;37.368;127.108;2023-03-19T05:41:31;53.17;;;26.17;;
48028;SDS011;33808;37.368;127.108;2023-03-19T05:44:00;58.67;;;29.98;;
48028;SDS011;33808;37.368;127.108;2023-03-19T05:46:29;51.80;;;27.15;;
48028;SDS011;33808;37.368;127.108;2023-03-19T05:48:59;48.42;;;26.65;;
48028;SDS011;33808;37.368;127.108;2023-03-19T05:51:29;42.40;;;23.42;;
48028;SDS011;33808;37.368;127.108;2023-03-19T05:53:59;41.00;;;23.80;;
48028;SDS011;33808;37.368;127.108;2023-03-19T05:56:28;50.50;;;23.92;;
48028;SDS011;33808;37.368;127.108;2023-03-19T05:58:59;54.05;;;24.92;;
48028;SDS011;33808;37.368;127.108;2023-03-19T06:01:28;64.57;;;28.83;;
48028;SDS011;33808;37.368;127.108;2023-03-19T06:03:58;62.03;;;29.58;;
48028;SDS011;33808;37.368;127.108;2023-03-19T06:06:31;66.15;;;30.65;;
48028;SDS011;33808;37.368;127.108;2023-03-19T06:09:02;62.80;;;30.17;;
48028;SDS011;33808;37.368;127.108;2023-03-19T06:11:31;58.25;;;30.70;;
48028;SDS011;33808;37.368;127.108;2023-03-19T06:14:00;52.20;;;29.88;;
48028;SDS011;33808;37.368;127.108;2023-03-19T06:16:30;55.67;;;30.65;;
48028;SDS011;33808;37.368;127.108;2023-03-19T06:19:00;55.25;;;29.23;;
48028;SDS011;33808;37.368;127.108;2023-03-19T06:21:30;56.03;;;29.42;;
48028;SDS011;33808;37.368;127.108;2023-03-19T06:23:59;54.30;;;29.45;;
48028;SDS011;33808;37.368;127.108;2023-03-19T06:26:29;70.05;;;31.65;;
48028;SDS011;33808;37.368;127.108;2023-03-19T06:28:59;59.72;;;31.77;;
48028;SDS011;33808;37.368;127.108;2023-03-19T06:31:29;65.72;;;33.15;;
48028;SDS011;33808;37.368;127.108;2023-03-19T06:33:58;59.63;;;32.55;;
48028;SDS011;33808;37.368;127.108;2023-03-19T06:36:28;54.97;;;28.45;;
48028;SDS011;33808;37.368;127.108;2023-03-19T06:38:59;55.35;;;28.65;;
48028;SDS011;33808;37.368;127.108;2023-03-19T06:41:28;61.13;;;31.52;;
48028;SDS011;33808;37.368;127.108;2023-03-19T06:43:59;63.78;;;32.90;;
48028;SDS011;33808;37.368;127.108;2023-03-19T06:46:28;62.75;;;30.77;;
48028;SDS011;33808;37.368;127.108;2023-03-19T06:48:58;49.28;;;25.48;;
48028;SDS011;33808;37.368;127.108;2023-03-19T06:51:28;49.55;;;26.77;;
48028;SDS011;33808;37.368;127.108;2023-03-19T06:53:58;63.05;;;26.35;;
48028;SDS011;33808;37.368;127.108;2023-03-19T06:56:28;49.58;;;25.67;;
48028;SDS011;33808;37.368;127.108;2023-03-19T06:58:58;51.92;;;26.35;;
48028;SDS011;33808;37.368;127.108;2023-03-19T07:01:28;57.05;;;27.70;;
48028;SDS011;33808;37.368;127.108;2023-03-19T07:03:57;53.75;;;26.05;;
48028;SDS011;33808;37.368;127.108;2023-03-19T07:06:27;45.33;;;25.40;;
48028;SDS011;33808;37.368;127.108;2023-03-19T07:08:57;60.78;;;30.85;;
48028;SDS011;33808;37.368;127.108;2023-03-19T07:11:27;47.85;;;26.63;;
48028;SDS011;33808;37.368;127.108;2023-03-19T07:13:57;54.85;;;27.63;;
48028;SDS011;33808;37.368;127.108;2023-03-19T07:16:26;49.05;;;26.27;;
48028;SDS011;33808;37.368;127.108;2023-03-19T07:18:56;48.85;;;25.67;;
48028;SDS011;33808;37.368;127.108;2023-03-19T07:21:26;53.33;;;28.42;;
48028;SDS011;33808;37.368;127.108;2023-03-19T07:23:56;47.85;;;25.58;;
48028;SDS011;33808;37.368;127.108;2023-03-19T07:26:26;44.08;;;24.77;;
48028;SDS011;33808;37.368;127.108;2023-03-19T07:28:55;44.60;;;23.38;;
48028;SDS011;33808;37.368;127.108;2023-03-19T07:31:25;45.83;;;23.55;;
48028;SDS011;33808;37.368;127.108;2023-03-19T07:33:55;48.47;;;25.10;;
48028;SDS011;33808;37.368;127.108;2023-03-19T07:36:24;42.20;;;21.20;;
48028;SDS011;33808;37.368;127.108;2023-03-19T07:38:54;45.13;;;22.17;;
48028;SDS011;33808;37.368;127.108;2023-03-19T07:41:24;47.30;;;25.10;;
48028;SDS011;33808;37.368;127.108;2023-03-19T07:43:54;50.70;;;24.13;;
48028;SDS011;33808;37.368;127.108;2023-03-19T07:46:24;53.33;;;26.83;;
48028;SDS011;33808;37.368;127.108;2023-03-19T07:48:53;55.33;;;27.83;;
48028;SDS011;33808;37.368;127.108;2023-03-19T07:51:23;55.28;;;26.73;;
48028;SDS011;33808;37.368;127.108;2023-03-19T07:53:52;67.78;;;31.70;;
48028;SDS011;33808;37.368;127.108;2023-03-19T07:56:22;57.58;;;29.70;;
48028;SDS011;33808;37.368;127.108;2023-03-19T07:58:51;68.30;;;34.75;;
48028;SDS011;33808;37.368;127.108;2023-03-19T08:01:20;61.45;;;30.45;;
48028;SDS011;33808;37.368;127.108;2023-03-19T08:03:50;56.55;;;28.67;;
48028;SDS011;33808;37.368;127.108;2023-03-19T08:06:20;51.50;;;27.02;;
48028;SDS011;33808;37.368;127.108;2023-03-19T08:08:50;60.05;;;28.45;;
48028;SDS011;33808;37.368;127.108;2023-03-19T08:11:20;61.20;;;28.58;;
48028;SDS011;33808;37.368;127.108;2023-03-19T08:13:50;61.83;;;30.10;;
48028;SDS011;33808;37.368;127.108;2023-03-19T08:16:20;67.55;;;33.50;;
48028;SDS011;33808;37.368;127.108;2023-03-19T08:18:49;77.65;;;37.15;;
48028;SDS011;33808;37.368;127.108;2023-03-19T08:21:19;87.35;;;38.70;;
48028;SDS011;33808;37.368;127.108;2023-03-19T08:23:49;86.28;;;41.85;;
48028;SDS011;33808;37.368;127.108;2023-03-19T08:26:20;88.25;;;40.70;;
48028;SDS011;33808;37.368;127.108;2023-03-19T08:28:50;83.47;;;40.40;;
48028;SDS011;33808;37.368;127.108;2023-03-19T08:31:20;95.03;;;42.58;;
48028;SDS011;33808;37.368;127.108;2023-03-19T08:33:49;91.88;;;41.50;;
48028;SDS011;33808;37.368;127.108;2023-03-19T08:36:19;90.63;;;41.22;;
48028;SDS011;33808;37.368;127.108;2023-03-19T08:38:49;70.90;;;38.30;;
48028;SDS011;33808;37.368;127.108;2023-03-19T08:41:22;74.60;;;38.00;;
48028;SDS011;33808;37.368;127.108;2023-03-19T08:43:52;80.38;;;36.42;;
48028;SDS011;33808;37.368;127.108;2023-03-19T08:46:22;87.30;;;39.03;;
48028;SDS011;33808;37.368;127.108;2023-03-19T08:48:52;85.40;;;39.88;;
48028;SDS011;33808;37.368;127.108;2023-03-19T08:51:22;95.93;;;41.03;;
48028;SDS011;33808;37.368;127.108;2023-03-19T08:53:53;94.45;;;42.22;;
48028;SDS011;33808;37.368;127.108;2023-03-19T08:56:23;92.20;;;42.00;;
48028;SDS011;33808;37.368;127.108;2023-03-19T08:58:54;89.75;;;42.13;;
48028;SDS011;33808;37.368;127.108;2023-03-19T09:01:24;96.25;;;44.10;;
48028;SDS011;33808;37.368;127.108;2023-03-19T09:03:54;90.25;;;40.08;;
48028;SDS011;33808;37.368;127.108;2023-03-19T09:06:24;94.20;;;43.40;;
48028;SDS011;33808;37.368;127.108;2023-03-19T09:08:53;88.45;;;42.03;;
48028;SDS011;33808;37.368;127.108;2023-03-19T09:11:23;84.13;;;41.17;;
48028;SDS011;33808;37.368;127.108;2023-03-19T09:13:53;83.15;;;41.05;;
48028;SDS011;33808;37.368;127.108;2023-03-19T09:16:23;85.18;;;40.90;;
48028;SDS011;33808;37.368;127.108;2023-03-19T09:18:53;82.75;;;38.35;;
48028;SDS011;33808;37.368;127.108;2023-03-19T09:21:25;84.30;;;40.03;;
48028;SDS011;33808;37.368;127.108;2023-03-19T09:23:54;78.43;;;40.45;;
48028;SDS011;33808;37.368;127.108;2023-03-19T09:26:24;87.00;;;41.88;;
48028;SDS011;33808;37.368;127.108;2023-03-19T09:28:54;79.32;;;39.63;;
48028;SDS011;33808;37.368;127.108;2023-03-19T09:31:24;84.68;;;44.08;;
48028;SDS011;33808;37.368;127.108;2023-03-19T09:33:55;84.43;;;43.25;;
48028;SDS011;33808;37.368;127.108;2023-03-19T09:36:25;95.10;;;43.20;;
48028;SDS011;33808;37.368;127.108;2023-03-19T09:38:55;93.82;;;42.72;;
48028;SDS011;33808;37.368;127.108;2023-03-19T09:47:28;82.18;;;41.28;;
48028;SDS011;33808;37.368;127.108;2023-03-19T09:50:11;88.95;;;42.47;;
48028;SDS011;33808;37.368;127.108;2023-03-19T09:55:48;84.18;;;38.95;;
48028;SDS011;33808;37.368;127.108;2023-03-19T10:00:49;98.13;;;42.28;;
48028;SDS011;33808;37.368;127.108;2023-03-19T10:06:33;88.85;;;42.03;;
48028;SDS011;33808;37.368;127.108;2023-03-19T10:09:04;97.95;;;43.55;;
48028;SDS011;33808;37.368;127.108;2023-03-19T10:18:01;98.93;;;44.33;;
48028;SDS011;33808;37.368;127.108;2023-03-19T10:23:22;102.72;;;46.75;;
48028;SDS011;33808;37.368;127.108;2023-03-19T10:25:54;112.63;;;48.17;;
48028;SDS011;33808;37.368;127.108;2023-03-19T10:28:27;106.60;;;47.53;;
48028;SDS011;33808;37.368;127.108;2023-03-19T10:34:04;101.57;;;46.15;;
48028;SDS011;33808;37.368;127.108;2023-03-19T10:36:47;109.18;;;48.53;;
48028;SDS011;33808;37.368;127.108;2023-03-19T10:39:16;113.15;;;46.20;;
48028;SDS011;33808;37.368;127.108;2023-03-19T10:44:29;108.88;;;48.28;;
48028;SDS011;33808;37.368;127.108;2023-03-19T10:49:42;107.82;;;48.63;;
48028;SDS011;33808;37.368;127.108;2023-03-19T10:55:04;113.93;;;47.40;;
48028;SDS011;33808;37.368;127.108;2023-03-19T10:57:34;119.32;;;49.63;;
48028;SDS011;33808;37.368;127.108;2023-03-19T11:00:04;120.00;;;50.95;;
48028;SDS011;33808;37.368;127.108;2023-03-19T11:02:47;121.80;;;49.90;;
48028;SDS011;33808;37.368;127.108;2023-03-19T11:10:29;116.75;;;50.20;;
48028;SDS011;33808;37.368;127.108;2023-03-19T11:15:53;106.72;;;48.15;;
48028;SDS011;33808;37.368;127.108;2023-03-19T11:18:28;114.07;;;49.40;;
48028;SDS011;33808;37.368;127.108;2023-03-19T11:21:00;123.60;;;52.25;;
48028;SDS011;33808;37.368;127.108;2023-03-19T11:23:57;119.13;;;53.30;;
48028;SDS011;33808;37.368;127.108;2023-03-19T11:26:30;116.32;;;51.50;;
48028;SDS011;33808;37.368;127.108;2023-03-19T11:29:03;122.65;;;50.35;;
48028;SDS011;33808;37.368;127.108;2023-03-19T11:31:36;120.68;;;53.38;;
48028;SDS011;33808;37.368;127.108;2023-03-19T11:53:52;132.98;;;55.10;;
48028;SDS011;33808;37.368;127.108;2023-03-19T11:56:43;125.20;;;52.10;;
48028;SDS011;33808;37.368;127.108;2023-03-19T12:05:18;125.38;;;53.08;;
48028;SDS011;33808;37.368;127.108;2023-03-19T12:07:51;133.95;;;53.60;;
48028;SDS011;33808;37.368;127.108;2023-03-19T12:16:04;118.45;;;51.17;;
48028;SDS011;33808;37.368;127.108;2023-03-19T12:30:41;127.60;;;53.85;;
48028;SDS011;33808;37.368;127.108;2023-03-19T12:36:12;127.95;;;55.53;;
48028;SDS011;33808;37.368;127.108;2023-03-19T12:38:52;126.13;;;53.38;;
48028;SDS011;33808;37.368;127.108;2023-03-19T12:41:30;133.38;;;55.83;;
48028;SDS011;33808;37.368;127.108;2023-03-19T12:46:42;137.38;;;59.30;;
48028;SDS011;33808;37.368;127.108;2023-03-19T12:49:30;140.43;;;57.92;;
48028;SDS011;33808;37.368;127.108;2023-03-19T13:00:39;134.27;;;55.20;;
48028;SDS011;33808;37.368;127.108;2023-03-19T13:06:30;136.70;;;55.47;;
48028;SDS011;33808;37.368;127.108;2023-03-19T13:20:32;140.05;;;54.85;;
48028;SDS011;33808;37.368;127.108;2023-03-19T13:23:32;127.97;;;53.38;;
48028;SDS011;33808;37.368;127.108;2023-03-19T13:26:04;145.02;;;56.70;;
48028;SDS011;33808;37.368;127.108;2023-03-19T13:28:52;132.07;;;58.13;;
48028;SDS011;33808;37.368;127.108;2023-03-19T13:31:37;141.65;;;56.00;;
48028;SDS011;33808;37.368;127.108;2023-03-19T13:34:16;129.90;;;54.85;;
48028;SDS011;33808;37.368;127.108;2023-03-19T13:37:10;143.70;;;55.95;;
48028;SDS011;33808;37.368;127.108;2023-03-19T13:39:41;136.85;;;58.90;;
48028;SDS011;33808;37.368;127.108;2023-03-19T13:45:35;130.90;;;56.60;;
48028;SDS011;33808;37.368;127.108;2023-03-19T13:47:57;133.30;;;54.80;;
48028;SDS011;33808;37.368;127.108;2023-03-19T13:51:00;132.77;;;56.42;;
48028;SDS011;33808;37.368;127.108;2023-03-19T13:59:24;140.60;;;56.50;;
48028;SDS011;33808;37.368;127.108;2023-03-19T14:04:58;138.93;;;55.97;;
48028;SDS011;33808;37.368;127.108;2023-03-19T14:07:37;134.23;;;53.90;;
48028;SDS011;33808;37.368;127.108;2023-03-19T14:10:20;137.30;;;55.42;;
48028;SDS011;33808;37.368;127.108;2023-03-19T14:16:07;144.45;;;57.30;;
48028;SDS011;33808;37.368;127.108;2023-03-19T14:18:39;121.00;;;53.47;;
48028;SDS011;33808;37.368;127.108;2023-03-19T14:21:15;125.68;;;52.30;;
48028;SDS011;33808;37.368;127.108;2023-03-19T14:30:47;126.25;;;46.05;;
48028;SDS011;33808;37.368;127.108;2023-03-19T14:33:33;113.07;;;47.20;;
48028;SDS011;33808;37.368;127.108;2023-03-19T14:36:04;114.15;;;46.65;;
48028;SDS011;33808;37.368;127.108;2023-03-19T14:38:37;124.10;;;48.80;;
48028;SDS011;33808;37.368;127.108;2023-03-19T14:41:13;121.00;;;48.53;;
48028;SDS011;33808;37.368;127.108;2023-03-19T14:52:31;124.80;;;49.67;;
48028;SDS011;33808;37.368;127.108;2023-03-19T14:55:21;119.32;;;51.10;;
48028;SDS011;33808;37.368;127.108;2023-03-19T14:58:00;126.03;;;53.13;;
48028;SDS011;33808;37.368;127.108;2023-03-19T15:00:49;121.97;;;51.20;;
48028;SDS011;33808;37.368;127.108;2023-03-19T15:03:42;122.50;;;52.88;;
48028;SDS011;33808;37.368;127.108;2023-03-19T15:06:12;117.75;;;47.97;;
48028;SDS011;33808;37.368;127.108;2023-03-19T15:18:00;118.30;;;48.38;;
48028;SDS011;33808;37.368;127.108;2023-03-19T15:24:15;127.43;;;50.92;;
48028;SDS011;33808;37.368;127.108;2023-03-19T15:30:22;111.68;;;48.20;;
48028;SDS011;33808;37.368;127.108;2023-03-19T15:33:35;122.35;;;49.78;;
48028;SDS011;33808;37.368;127.108;2023-03-19T15:36:29;121.53;;;51.22;;
48028;SDS011;33808;37.368;127.108;2023-03-19T15:39:05;122.10;;;49.70;;
48028;SDS011;33808;37.368;127.108;2023-03-19T15:41:39;130.68;;;50.55;;
48028;SDS011;33808;37.368;127.108;2023-03-19T15:44:16;115.32;;;48.85;;
48028;SDS011;33808;37.368;127.108;2023-03-19T15:46:50;122.80;;;50.00;;
48028;SDS011;33808;37.368;127.108;2023-03-19T15:49:30;119.75;;;51.40;;
48028;SDS011;33808;37.368;127.108;2023-03-19T15:52:03;120.00;;;49.40;;
48028;SDS011;33808;37.368;127.108;2023-03-19T15:54:33;116.20;;;47.53;;
48028;SDS011;33808;37.368;127.108;2023-03-19T15:57:03;120.82;;;50.30;;
48028;SDS011;33808;37.368;127.108;2023-03-19T15:59:36;118.30;;;47.47;;
48028;SDS011;33808;37.368;127.108;2023-03-19T16:02:21;119.18;;;49.28;;
48028;SDS011;33808;37.368;127.108;2023-03-19T16:04:57;129.65;;;50.45;;
48028;SDS011;33808;37.368;127.108;2023-03-19T16:07:50;122.45;;;50.88;;
48028;SDS011;33808;37.368;127.108;2023-03-19T16:16:14;113.28;;;48.30;;
48028;SDS011;33808;37.368;127.108;2023-03-19T16:18:48;121.47;;;51.38;;
48028;SDS011;33808;37.368;127.108;2023-03-19T16:21:27;125.75;;;51.53;;
48028;SDS011;33808;37.368;127.108;2023-03-19T16:26:41;132.15;;;55.40;;
48028;SDS011;33808;37.368;127.108;2023-03-19T16:29:21;134.90;;;53.25;;
48028;SDS011;33808;37.368;127.108;2023-03-19T16:42:51;131.45;;;51.42;;
48028;SDS011;33808;37.368;127.108;2023-03-19T16:45:24;126.30;;;52.95;;
48028;SDS011;33808;37.368;127.108;2023-03-19T16:47:55;133.13;;;54.10;;
48028;SDS011;33808;37.368;127.108;2023-03-19T16:50:36;125.68;;;53.90;;
48028;SDS011;33808;37.368;127.108;2023-03-19T16:53:19;124.15;;;52.85;;
48028;SDS011;33808;37.368;127.108;2023-03-19T16:55:53;132.23;;;54.28;;
48028;SDS011;33808;37.368;127.108;2023-03-19T16:58:41;133.15;;;54.83;;
48028;SDS011;33808;37.368;127.108;2023-03-19T17:01:13;135.90;;;54.25;;
48028;SDS011;33808;37.368;127.108;2023-03-19T17:03:48;131.75;;;53.13;;
48028;SDS011;33808;37.368;127.108;2023-03-19T17:06:22;134.40;;;54.75;;
48028;SDS011;33808;37.368;127.108;2023-03-19T17:08:52;129.35;;;54.42;;
48028;SDS011;33808;37.368;127.108;2023-03-19T17:11:24;134.63;;;53.00;;
48028;SDS011;33808;37.368;127.108;2023-03-19T17:13:55;138.75;;;54.22;;
48028;SDS011;33808;37.368;127.108;2023-03-19T17:16:26;123.70;;;50.38;;
48028;SDS011;33808;37.368;127.108;2023-03-19T17:18:56;115.72;;;50.45;;
48028;SDS011;33808;37.368;127.108;2023-03-19T17:21:27;121.07;;;52.05;;
48028;SDS011;33808;37.368;127.108;2023-03-19T17:24:13;124.83;;;49.13;;
48028;SDS011;33808;37.368;127.108;2023-03-19T17:27:03;121.78;;;49.63;;
48028;SDS011;33808;37.368;127.108;2023-03-19T17:29:32;126.97;;;50.05;;
48028;SDS011;33808;37.368;127.108;2023-03-19T17:32:02;112.38;;;48.63;;
48028;SDS011;33808;37.368;127.108;2023-03-19T17:34:34;123.00;;;49.67;;